Time;durP1;ratioP1;P1;durP2;ratioP2;P2;SDS_P1;SDS_P2;PMS_P1;PMS_P2;Temp;Humidity;BMP_temperature;BMP_pressure;BME280_temperature;BME280_humidity;BME280_pressure;Samples;Min_cycle;Max_cycle;Signal;HPM_P1;HPM_P2
2022/01/03 00:00:12;;;;;;;;;;;;;;;21.46;39.17;101025.34;105194;1299;72762;-85
2022/01/03 00:02:41;;;;;;;;;;;;;;;21.46;39.00;101025.35;105215;1300;73952;-82
2022/01/03 00:05:10;;;;;;;;;;;;;;;21.46;39.08;101022.64;105177;1300;61459;-82
2022/01/03 00:07:43;;;;;;;;;;;;;;;21.46;39.07;101019.27;105199;1299;60613;-82
2022/01/03 00:10:18;;;;;;;;;;;;;;;21.46;39.15;101021.59;105226;1299;71746;-83
2022/01/03 00:12:44;;;;;;;;;;;;;;;21.46;39.13;101018.88;105074;1301;75114;-84
2022/01/03 00:15:17;;;;;;;;;;;;;;;21.46;39.17;101019.79;105167;1300;61065;-84
2022/01/03 00:17:55;;;;;;;;;;;;;;;21.46;39.19;101009.06;105302;1300;61598;-83
2022/01/03 00:20:25;;;;;;;;;;;;;;;21.46;39.08;101004.19;105354;1299;71851;-85
2022/01/03 00:22:57;;;;;;;;;;;;;;;21.46;39.14;101000.98;105304;1300;75139;-90
2022/01/03 00:25:45;;;;;;;;;;;;;;;21.46;39.23;101008.30;104776;1304;60479;-83
2022/01/03 00:28:15;;;;;;;;;;;;;;;21.46;39.12;101012.23;104653;1305;60794;-84
2022/01/03 00:30:44;;;;;;;;;;;;;;;21.46;39.03;101009.36;104780;1304;73763;-84
2022/01/03 00:33:31;;;;;;;;;;;;;;;;;;;;;
2022/01/03 00:36:06;;;;;;;;;;;;;;;21.46;39.15;101012.08;104776;1305;60388;-83
2022/01/03 00:38:42;;;;;;;;;;;;;;;21.47;39.17;101010.09;104653;1305;61242;-84
2022/01/03 00:41:10;;;;;;;;;;;;;;;21.46;39.18;101006.34;104785;1305;73828;-84
2022/01/03 00:43:43;;;;;;;;;;;;;;;21.46;39.03;101004.91;104679;1305;74444;-86
2022/01/03 00:46:16;;;;;;;;;;;;;;;21.46;39.17;100999.88;104637;1305;61483;-83
2022/01/03 00:48:53;;;;;;;;;;;;;;;21.46;39.18;100996.32;104658;1305;60571;-84
2022/01/03 00:51:35;;;;;;;;;;;;;;;21.47;39.18;100985.73;104619;1305;72970;-86
2022/01/03 00:54:01;;;;;;;;;;;;;;;21.47;39.02;100983.40;104621;1304;74236;-84
2022/01/03 00:56:48;;;;;;;;;;;;;;;21.47;39.16;100974.64;104658;1305;60467;-83
2022/01/03 00:59:43;;;;;;;;;;;;;;;21.47;39.11;100972.80;104365;1313;60405;-82
2022/01/03 01:02:09;;;;;;;;;;;;;;;21.47;39.06;100972.77;104366;1313;72883;-83
2022/01/03 01:04:34;;;;;;;;;;;;;;;21.47;39.17;100967.60;104646;1306;60487;-84
2022/01/03 01:07:22;;;;;;;;;;;;;;;21.47;39.11;100966.21;104835;1304;60501;-84
2022/01/03 01:10:12;;;;;;;;;;;;;;;21.47;39.04;100960.64;104813;1305;61367;-86
2022/01/03 01:12:49;;;;;;;;;;;;;;;21.47;39.11;100953.47;104664;1308;72098;-82
2022/01/03 01:15:20;;;;;;;;;;;;;;;21.47;39.18;100950.61;104639;1308;73924;-84
2022/01/03 01:17:45;;;;;;;;;;;;;;;21.47;39.09;100949.16;104554;1308;61035;-84
2022/01/03 01:20:15;;;;;;;;;;;;;;;21.46;39.15;100942.77;104615;1308;60439;-81
2022/01/03 01:23:04;;;;;;;;;;;;;;;21.47;39.05;100945.94;104516;1308;74231;-87
2022/01/03 01:28:21;;;;;;;;;;;;;;;21.47;39.24;100931.61;104292;1315;60497;-83
2022/01/03 01:30:50;;;;;;;;;;;;;;;21.47;39.15;100918.02;104248;1314;61555;-83
2022/01/03 01:33:39;;;;;;;;;;;;;;;21.47;39.17;100916.55;104283;1315;73776;-85
2022/01/03 01:36:15;;;;;;;;;;;;;;;21.47;39.20;100910.48;104285;1308;74323;-86
2022/01/03 01:38:50;;;;;;;;;;;;;;;21.47;39.06;100905.48;104453;1310;60448;-84
2022/01/03 01:41:16;;;;;;;;;;;;;;;21.47;39.08;100900.65;104480;1309;60589;-85
2022/01/03 01:43:46;;;;;;;;;;;;;;;21.46;39.24;100893.33;104420;1310;72835;-84
2022/01/03 01:46:28;;;;;;;;;;;;;;;21.47;39.12;100885.95;104456;1308;73537;-84
2022/01/03 01:49:00;;;;;;;;;;;;;;;21.46;39.13;100880.81;104442;1310;60967;-83
2022/01/03 01:51:26;;;;;;;;;;;;;;;21.46;39.11;100879.55;104419;1310;60538;-79
2022/01/03 01:54:01;;;;;;;;;;;;;;;21.47;39.16;100876.15;104637;1305;72885;-83
2022/01/03 01:56:27;;;;;;;;;;;;;;;21.47;39.11;100872.90;104559;1305;74029;-82
2022/01/03 01:59:31;;;;;;;;;;;;;;;21.47;39.06;100871.27;104664;1305;60502;-82
2022/01/03 02:01:59;;;;;;;;;;;;;;;21.47;38.95;100858.25;104770;1304;61814;-82
2022/01/03 02:04:31;;;;;;;;;;;;;;;21.47;39.11;100851.20;104671;1305;73964;-85
2022/01/03 02:06:59;;;;;;;;;;;;;;;21.47;39.20;100839.23;105363;1297;73574;-86
2022/01/03 02:10:00;;;;;;;;;;;;;;;21.47;38.97;100836.90;105249;1299;60382;-82
2022/01/03 02:12:27;;;;;;;;;;;;;;;21.46;39.01;100844.98;104932;1302;61597;-84
2022/01/03 02:14:57;;;;;;;;;;;;;;;21.46;39.09;100841.05;104955;1303;72103;-82
2022/01/03 02:17:29;;;;;;;;;;;;;;;21.46;38.98;100836.05;104878;1303;72786;-82
2022/01/03 02:20:21;;;;;;;;;;;;;;;21.47;39.12;100829.40;104907;1303;60587;-84
2022/01/03 02:22:53;;;;;;;;;;;;;;;21.46;39.13;100827.98;104912;1303;60546;-86
2022/01/03 02:25:28;;;;;;;;;;;;;;;21.47;39.21;100814.00;104953;1303;73741;-80
2022/01/03 02:27:54;;;;;;;;;;;;;;;21.47;39.08;100798.22;104953;1302;73749;-82
2022/01/03 02:30:21;;;;;;;;;;;;;;;21.47;39.04;100790.70;104914;1302;60631;-82
2022/01/03 02:32:52;;;;;;;;;;;;;;;21.46;39.18;100782.50;104911;1303;60634;-82
2022/01/03 02:35:42;;;;;;;;;;;;;;;21.47;39.05;100785.89;104576;1309;71532;-87
2022/01/03 02:38:08;;;;;;;;;;;;;;;21.47;39.32;100791.61;104600;1309;73739;-84
2022/01/03 02:40:52;;;;;;;;;;;;;;;21.47;39.07;100781.75;104606;1307;61133;-82
2022/01/03 02:43:20;;;;;;;;;;;;;;;21.47;39.01;100776.18;104550;1309;60392;-84
2022/01/03 02:45:46;;;;;;;;;;;;;;;21.47;39.13;100767.04;104539;1308;72643;-84
2022/01/03 02:48:22;;;;;;;;;;;;;;;21.47;39.09;100759.18;104535;1309;59484;-88
2022/01/03 02:50:50;;;;;;;;;;;;;;;21.47;39.02;100751.48;104872;1303;61388;-83
2022/01/03 02:53:16;;;;;;;;;;;;;;;21.47;39.16;100747.52;104940;1303;60644;-82
2022/01/03 02:55:51;;;;;;;;;;;;;;;21.46;39.09;100740.63;104851;1304;72732;-86
2022/01/03 02:58:28;;;;;;;;;;;;;;;21.47;39.06;100730.94;104871;1305;75223;-83
2022/01/03 03:00:54;;;;;;;;;;;;;;;21.46;39.05;100725.23;104902;1303;61249;-84
2022/01/03 03:03:22;;;;;;;;;;;;;;;21.47;39.09;100720.91;104886;1303;60503;-82
2022/01/03 03:05:51;;;;;;;;;;;;;;;21.47;38.95;100725.54;104906;1303;72720;-82
2022/01/03 03:08:19;;;;;;;;;;;;;;;21.47;39.16;100722.52;104937;1303;74679;-82
2022/01/03 03:10:48;;;;;;;;;;;;;;;21.47;38.93;100713.19;104830;1303;60476;-86
2022/01/03 03:13:28;;;;;;;;;;;;;;;21.47;39.15;100712.85;105116;1298;60536;-84
2022/01/03 03:15:54;;;;;;;;;;;;;;;21.46;39.09;100716.65;105393;1298;73766;-84
2022/01/03 03:18:31;;;;;;;;;;;;;;;;;;;;;
2022/01/03 03:20:58;;;;;;;;;;;;;;;21.46;39.11;100715.57;105388;1298;60421;-84
2022/01/03 03:23:29;;;;;;;;;;;;;;;21.46;38.98;100718.79;105397;1299;60379;-83
2022/01/03 03:26:01;;;;;;;;;;;;;;;21.46;39.13;100724.35;105400;1299;71832;-86
2022/01/03 03:28:35;;;;;;;;;;;;;;;21.47;38.98;100720.70;105277;1298;73772;-85
2022/01/03 03:31:10;;;;;;;;;;;;;;;21.47;39.02;100720.20;105026;1298;356366;-81
2022/01/03 03:33:36;;;;;;;;;;;;;;;21.47;39.18;100717.15;105314;1299;60511;-83
2022/01/03 03:36:05;;;;;;;;;;;;;;;21.47;39.12;100714.09;105235;1299;60459;-83
2022/01/03 03:38:33;;;;;;;;;;;;;;;21.46;39.00;100709.67;105211;1299;75283;-85
2022/01/03 03:41:21;;;;;;;;;;;;;;;21.47;39.01;100706.03;105146;1299;60612;-82
2022/01/03 03:43:50;;;;;;;;;;;;;;;21.47;39.11;100709.45;105443;1300;60344;-79
2022/01/03 03:46:16;;;;;;;;;;;;;;;21.47;38.91;100704.02;105204;1299;72199;-84
2022/01/03 03:48:54;;;;;;;;;;;;;;;21.47;39.06;100705.49;105060;1299;73138;-84
2022/01/03 03:51:29;;;;;;;;;;;;;;;21.47;38.84;100705.10;105426;1299;61180;-83
2022/01/03 03:54:04;;;;;;;;;;;;;;;21.47;38.95;100687.55;105338;1299;60527;-82
2022/01/03 03:56:46;;;;;;;;;;;;;;;21.47;38.92;100685.02;105375;1299;74077;-86
2022/01/03 03:59:22;;;;;;;;;;;;;;;;;;;;;
2022/01/03 04:01:58;;;;;;;;;;;;;;;21.47;39.04;100706.17;105302;1298;60348;-86
2022/01/03 04:04:27;;;;;;;;;;;;;;;21.48;38.89;100717.61;105327;1299;61637;-83
2022/01/03 04:07:00;;;;;;;;;;;;;;;21.47;38.87;100709.73;105318;1300;73040;-82
2022/01/03 04:09:45;;;;;;;;;;;;;;;21.48;39.06;100715.83;105271;1299;74124;-84
2022/01/03 04:12:11;;;;;;;;;;;;;;;21.47;39.05;100716.19;105451;1298;60573;-83
2022/01/03 04:14:39;;;;;;;;;;;;;;;21.48;39.02;100709.90;105410;1300;60459;-82
2022/01/03 04:17:08;;;;;;;;;;;;;;;21.48;38.95;100699.69;105431;1299;72609;-83
2022/01/03 04:19:46;;;;;;;;;;;;;;;21.48;39.05;100701.50;105284;1299;75228;-80
2022/01/03 04:22:14;;;;;;;;;;;;;;;21.47;39.07;100710.64;105211;1300;61172;-82
2022/01/03 04:25:00;;;;;;;;;;;;;;;21.47;38.98;100707.79;104695;1304;60446;-83
2022/01/03 04:27:37;;;;;;;;;;;;;;;;;;;;;
2022/01/03 04:30:05;;;;;;;;;;;;;;;21.47;39.10;100685.29;104658;1305;73551;-84
2022/01/03 04:32:36;;;;;;;;;;;;;;;21.47;38.91;100680.98;104656;1305;61016;-83
2022/01/03 04:35:13;;;;;;;;;;;;;;;21.47;38.92;100685.29;104642;1305;60360;-82
2022/01/03 04:37:48;;;;;;;;;;;;;;;21.47;38.88;100677.94;104688;1304;73215;-82
2022/01/03 04:40:18;;;;;;;;;;;;;;;21.46;39.04;100674.73;104782;1305;74012;-88
2022/01/03 04:42:51;;;;;;;;;;;;;;;21.46;39.06;100684.56;104675;1305;60477;-84
2022/01/03 04:45:26;;;;;;;;;;;;;;;21.47;39.03;100687.44;104805;1304;60432;-86
2022/01/03 04:47:57;;;;;;;;;;;;;;;21.47;39.11;100689.05;104751;1304;73825;-84
2022/01/03 04:50:43;;;;;;;;;;;;;;;21.46;39.12;100688.52;104657;1305;72749;-83
2022/01/03 04:53:27;;;;;;;;;;;;;;;21.46;39.05;100689.83;104758;1304;60651;-84
2022/01/03 04:55:55;;;;;;;;;;;;;;;21.46;38.92;100701.44;104684;1305;60273;-85
2022/01/03 04:58:44;;;;;;;;;;;;;;;21.45;38.90;100705.84;104642;1304;74163;-84
2022/01/03 05:01:21;;;;;;;;;;;;;;;21.43;38.90;100707.35;104686;1304;75296;-82
2022/01/03 05:03:49;;;;;;;;;;;;;;;21.41;38.85;100708.75;105278;1299;61462;-84
2022/01/03 05:06:29;;;;;;;;;;;;;;;21.39;38.65;100708.34;105299;1299;60457;-82
2022/01/03 05:08:55;;;;;;;;;;;;;;;21.38;38.73;100699.89;105409;1297;72638;-81
2022/01/03 05:11:46;;;;;;;;;;;;;;;21.35;38.50;100696.48;105299;1299;75351;-85
2022/01/03 05:14:24;;;;;;;;;;;;;;;21.34;38.63;100696.95;104953;1298;60597;-84
2022/01/03 05:16:57;;;;;;;;;;;;;;;21.32;38.49;100694.61;105141;1299;60822;-80
2022/01/03 05:19:25;;;;;;;;;;;;;;;21.30;38.54;100692.23;105182;1299;71396;-87
2022/01/03 05:22:16;;;;;;;;;;;;;;;21.29;38.44;100685.67;105151;1299;74244;-84
2022/01/03 05:24:44;;;;;;;;;;;;;;;21.28;38.31;100681.63;105375;1299;61040;-82
2022/01/03 05:27:21;;;;;;;;;;;;;;;;;;;;;
2022/01/03 05:29:57;;;;;;;;;;;;;;;21.26;38.22;100667.10;105175;1299;73844;-81
2022/01/03 05:32:39;;;;;;;;;;;;;;;;;;;;;
2022/01/03 05:35:05;;;;;;;;;;;;;;;21.23;38.20;100656.59;105067;1299;60521;-81
2022/01/03 05:37:31;;;;;;;;;;;;;;;21.22;38.00;100651.85;105168;1299;60577;-82
2022/01/03 05:39:59;;;;;;;;;;;;;;;21.20;38.03;100645.17;105184;1299;60778;-85
2022/01/03 05:42:25;;;;;;;;;;;;;;;21.18;37.94;100638.52;105180;1299;73875;-86
2022/01/03 05:44:51;;;;;;;;;;;;;;;21.16;37.89;100641.86;105131;1299;60607;-83
2022/01/03 05:47:22;;;;;;;;;;;;;;;21.14;37.74;100636.10;105099;1299;60459;-80
2022/01/03 05:49:48;;;;;;;;;;;;;;;21.13;37.67;100631.75;105142;1299;72932;-83
2022/01/03 05:52:13;;;;;;;;;;;;;;;21.11;37.82;100630.09;105144;1299;60474;-83
2022/01/03 05:54:47;;;;;;;;;;;;;;;21.10;37.55;100625.52;105098;1299;60460;-81
2022/01/03 05:57:12;;;;;;;;;;;;;;;21.08;37.60;100624.77;105004;1299;61695;-79
2022/01/03 05:59:55;;;;;;;;;;;;;;;;;;;;;
2022/01/03 06:02:21;;;;;;;;;;;;;;;21.04;37.49;100610.51;105124;1299;75207;-84
2022/01/03 06:04:56;;;;;;;;;;;;;;;21.03;37.49;100606.70;104975;1299;59428;-81
2022/01/03 06:07:22;;;;;;;;;;;;;;;21.02;37.38;100616.40;105018;1298;60781;-82
2022/01/03 06:09:49;;;;;;;;;;;;;;;21.01;37.50;100625.08;105044;1299;60466;-80
2022/01/03 06:12:17;;;;;;;;;;;;;;;21.02;37.35;100628.80;104966;1299;75048;-81
2022/01/03 06:14:43;;;;;;;;;;;;;;;21.03;37.21;100633.89;105032;1299;61855;-81
2022/01/03 06:17:09;;;;;;;;;;;;;;;21.05;37.30;100635.40;105454;1299;58609;-81
2022/01/03 06:19:35;;;;;;;;;;;;;;;21.07;37.18;100636.98;105035;1300;60495;-81
2022/01/03 06:22:01;;;;;;;;;;;;;;;21.10;37.12;100638.43;105054;1299;60521;-81
2022/01/03 06:24:26;;;;;;;;;;;;;;;21.12;37.18;100636.49;105031;1299;60571;-82
2022/01/03 06:26:52;;;;;;;;;;;;;;;21.14;37.03;100632.38;105023;1299;60588;-80
2022/01/03 06:29:20;;;;;;;;;;;;;;;21.17;37.12;100634.66;105076;1298;60332;-81
2022/01/03 06:31:46;;;;;;;;;;;;;;;21.19;37.22;100632.92;104994;1299;74162;-82
2022/01/03 06:34:12;;;;;;;;;;;;;;;21.21;37.25;100640.42;105129;1299;60452;-81
2022/01/03 06:36:38;;;;;;;;;;;;;;;21.24;37.17;100641.81;105057;1299;60574;-81
2022/01/03 06:39:04;;;;;;;;;;;;;;;21.26;37.28;100641.84;105007;1299;60554;-80
2022/01/03 06:41:30;;;;;;;;;;;;;;;21.29;37.36;100637.73;104999;1300;60495;-81
2022/01/03 06:43:55;;;;;;;;;;;;;;;21.30;37.41;100639.08;105096;1298;60536;-81
2022/01/03 06:46:21;;;;;;;;;;;;;;;21.32;37.49;100639.48;104912;1299;60562;-80
2022/01/03 06:48:47;;;;;;;;;;;;;;;21.33;37.44;100645.99;104972;1299;60403;-80
2022/01/03 06:51:14;;;;;;;;;;;;;;;21.35;37.41;100643.38;105092;1299;60897;-80
2022/01/03 06:53:39;;;;;;;;;;;;;;;21.37;37.50;100646.98;104961;1299;60566;-79
2022/01/03 06:56:05;;;;;;;;;;;;;;;21.38;37.68;100639.73;105047;1299;60476;-81
2022/01/03 06:58:38;;;;;;;;;;;;;;;21.39;37.59;100631.61;105092;1299;60616;-81
2022/01/03 07:01:04;;;;;;;;;;;;;;;21.39;37.71;100626.71;105111;1298;61342;-80
2022/01/03 07:03:29;;;;;;;;;;;;;;;21.41;37.83;100623.02;105029;1299;60112;-81
2022/01/03 07:05:54;;;;;;;;;;;;;;;21.41;37.76;100617.64;105024;1297;60533;-81
2022/01/03 07:08:21;;;;;;;;;;;;;;;21.42;37.73;100609.73;104700;1299;60501;-80
2022/01/03 07:10:47;;;;;;;;;;;;;;;21.42;37.74;100609.88;104681;1300;60892;-80
2022/01/03 07:13:12;;;;;;;;;;;;;;;21.43;37.77;100608.17;104875;1299;60475;-81
2022/01/03 07:21:12;;;;;;;;;;;;;;;21.46;37.88;100579.34;105240;1297;59981;-82
2022/01/03 07:23:56;;;;;;;;;;;;;;;21.47;38.07;100571.92;105047;1299;60404;-79
2022/01/03 07:26:24;;;;;;;;;;;;;;;21.47;37.91;100571.36;104960;1300;60543;-82
2022/01/03 07:28:50;;;;;;;;;;;;;;;21.48;37.85;100580.05;105231;1299;74015;-81
2022/01/03 07:31:15;;;;;;;;;;;;;;;21.48;37.95;100589.56;105210;1299;60594;-81
2022/01/03 07:33:43;;;;;;;;;;;;;;;21.48;38.00;100596.86;105109;1297;61762;-81
2022/01/03 07:36:10;;;;;;;;;;;;;;;21.49;38.06;100597.69;105172;1298;60460;-82
2022/01/03 07:38:39;;;;;;;;;;;;;;;21.49;38.16;100593.57;105244;1299;60460;-82
2022/01/03 07:41:05;;;;;;;;;;;;;;;21.50;38.12;100587.59;105153;1297;61037;-81
2022/01/03 07:43:31;;;;;;;;;;;;;;;21.50;38.08;100584.54;104998;1297;61182;-82
2022/01/03 07:45:56;;;;;;;;;;;;;;;21.51;38.17;100578.77;105106;1297;60460;-79
2022/01/03 07:48:33;;;;;;;;;;;;;;;21.52;37.98;100568.14;105284;1297;60472;-81
2022/01/03 07:51:04;;;;;;;;;;;;;;;21.52;38.03;100562.05;105029;1297;60924;-83
2022/01/03 07:53:46;;;;;;;;;;;;;;;;;;;;;
2022/01/03 07:56:12;;;;;;;;;;;;;;;21.51;38.05;100554.41;105274;1297;73964;-82
2022/01/03 07:58:46;;;;;;;;;;;;;;;21.51;37.89;100542.27;105075;1297;74299;-81
2022/01/03 08:01:31;;;;;;;;;;;;;;;21.50;37.72;100539.99;105124;1299;60494;-79
2022/01/03 08:03:57;;;;;;;;;;;;;;;21.49;37.89;100540.42;105122;1297;61732;-80
2022/01/03 08:06:35;;;;;;;;;;;;;;;;;;;;;
2022/01/03 08:09:04;;;;;;;;;;;;;;;21.48;37.88;100553.92;105160;1297;75401;-81
2022/01/03 08:11:29;;;;;;;;;;;;;;;21.49;37.78;100549.60;104989;1299;60444;-82
2022/01/03 08:13:55;;;;;;;;;;;;;;;21.49;37.56;100542.60;104993;1299;60584;-81
2022/01/03 08:16:21;;;;;;;;;;;;;;;21.49;37.68;100543.64;105082;1297;60500;-81
2022/01/03 08:18:46;;;;;;;;;;;;;;;21.50;37.59;100543.20;104972;1298;60492;-80
2022/01/03 08:21:14;;;;;;;;;;;;;;;21.51;37.33;100542.08;104985;1299;73879;-81
2022/01/03 08:23:39;;;;;;;;;;;;;;;21.51;37.58;100539.52;105654;1297;60191;-80
2022/01/03 08:26:05;;;;;;;;;;;;;;;21.53;37.32;100544.07;105018;1299;60546;-81
2022/01/03 08:28:30;;;;;;;;;;;;;;;21.55;37.67;100552.72;105052;1299;60462;-81
2022/01/03 08:30:56;;;;;;;;;;;;;;;21.56;37.67;100554.07;105124;1297;60457;-80
2022/01/03 08:33:22;;;;;;;;;;;;;;;21.57;37.49;100558.83;105123;1297;59280;-81
2022/01/03 08:36:15;;;;;;;;;;;;;;;;;;;;;
2022/01/03 08:38:42;;;;;;;;;;;;;;;21.58;37.45;100569.11;105136;1297;60472;-82
2022/01/03 08:41:07;;;;;;;;;;;;;;;21.58;37.50;100574.98;104954;1299;60604;-79
2022/01/03 08:43:34;;;;;;;;;;;;;;;21.59;37.51;100567.79;105094;1297;60536;-84
2022/01/03 08:46:00;;;;;;;;;;;;;;;21.59;37.44;100561.84;104971;1299;60481;-81
2022/01/03 08:48:25;;;;;;;;;;;;;;;21.59;37.51;100567.58;105089;1299;59532;-80
2022/01/03 08:50:52;;;;;;;;;;;;;;;21.60;37.52;100568.80;105171;1297;62775;-81
2022/01/03 08:53:21;;;;;;;;;;;;;;;21.60;37.48;100573.29;105053;1299;73859;-80
2022/01/03 08:56:10;;;;;;;;;;;;;;;21.60;37.37;100576.31;105089;1297;74177;-81
2022/01/03 08:58:36;;;;;;;;;;;;;;;21.59;37.50;100567.27;104465;1303;60100;-81
2022/01/03 09:01:02;;;;;;;;;;;;;;;21.58;37.28;100569.82;104240;1303;60604;-81
2022/01/03 09:03:27;;;;;;;;;;;;;;;21.58;37.60;100564.08;104508;1303;60525;-82
2022/01/03 09:05:54;;;;;;;;;;;;;;;21.58;37.48;100562.11;104537;1305;59502;-82
2022/01/03 09:08:22;;;;;;;;;;;;;;;21.58;37.40;100561.63;104815;1303;60521;-81
2022/01/03 09:10:48;;;;;;;;;;;;;;;21.57;37.61;100557.55;105568;1304;58920;-81
2022/01/03 09:13:13;;;;;;;;;;;;;;;21.58;37.40;100558.38;104987;1303;59823;-81
2022/01/03 09:15:44;;;;;;;;;;;;;;;21.58;37.64;100544.80;104677;1303;60492;-81
2022/01/03 09:18:13;;;;;;;;;;;;;;;21.58;37.49;100533.63;104296;1305;60245;-80
2022/01/03 09:20:38;;;;;;;;;;;;;;;21.59;37.50;100536.99;104907;1303;62427;-81
2022/01/03 09:23:26;;;;;;;;;;;;;;;21.59;37.68;100541.64;104423;1305;60507;-82
2022/01/03 09:28:52;;;;;;;;;;;;;;;21.58;37.46;100541.88;104613;1305;60306;-86
2022/01/03 09:31:22;;;;;;;;;;;;;;;21.57;37.64;100537.63;104604;1305;61626;-81
2022/01/03 09:33:49;;;;;;;;;;;;;;;21.58;37.66;100537.80;104662;1305;72657;-80
2022/01/03 09:36:15;;;;;;;;;;;;;;;21.56;37.41;100534.30;104858;1299;60478;-81
2022/01/03 09:38:41;;;;;;;;;;;;;;;21.55;37.54;100517.55;104995;1299;60543;-81
2022/01/03 09:41:07;;;;;;;;;;;;;;;21.55;37.62;100501.45;105087;1299;60514;-81
2022/01/03 09:43:40;;;;;;;;;;;;;;;21.53;37.52;100498.38;105148;1299;60827;-81
2022/01/03 09:46:05;;;;;;;;;;;;;;;21.53;37.36;100500.75;105030;1298;74846;-81
2022/01/03 09:48:31;;;;;;;;;;;;;;;21.52;37.45;100499.72;105041;1299;60494;-80
2022/01/03 09:50:57;;;;;;;;;;;;;;;21.50;37.49;100489.85;105084;1297;60645;-81
2022/01/03 09:53:23;;;;;;;;;;;;;;;21.49;37.53;100483.11;105163;1297;60457;-81
2022/01/03 09:55:49;;;;;;;;;;;;;;;21.48;37.30;100481.08;105042;1299;60436;-80
2022/01/03 09:58:15;;;;;;;;;;;;;;;21.44;37.43;100472.41;105169;1297;59418;-81
2022/01/03 10:00:41;;;;;;;;;;;;;;;21.42;37.50;100465.73;105882;1297;60045;-81
2022/01/03 10:03:06;;;;;;;;;;;;;;;21.42;37.35;100462.38;105921;1298;58658;-81
2022/01/03 10:05:32;;;;;;;;;;;;;;;21.43;37.64;100457.64;105551;1298;59338;-81
2022/01/03 10:07:57;;;;;;;;;;;;;;;21.44;37.44;100461.68;105019;1298;59495;-80
2022/01/03 10:10:23;;;;;;;;;;;;;;;21.45;37.47;100465.88;105094;1299;59380;-81
2022/01/03 10:12:48;;;;;;;;;;;;;;;21.47;37.28;100465.92;105060;1299;61269;-81
2022/01/03 10:15:14;;;;;;;;;;;;;;;21.48;37.32;100451.35;104988;1297;59943;-82
2022/01/03 10:17:40;;;;;;;;;;;;;;;21.49;37.34;100444.83;105078;1299;61237;-82
2022/01/03 10:20:06;;;;;;;;;;;;;;;21.49;37.28;100440.88;105400;1297;61292;-80
2022/01/03 10:22:32;;;;;;;;;;;;;;;21.50;37.25;100435.98;105912;1300;59615;-81
2022/01/03 10:24:59;;;;;;;;;;;;;;;21.51;37.49;100442.89;105105;1299;59505;-81
2022/01/03 10:27:25;;;;;;;;;;;;;;;21.51;37.22;100437.29;105101;1297;61720;-81
2022/01/03 10:29:53;;;;;;;;;;;;;;;21.52;37.29;100432.41;105490;1297;61396;-83
2022/01/03 10:32:23;;;;;;;;;;;;;;;21.53;37.41;100437.33;105116;1299;59950;-82
2022/01/03 10:34:49;;;;;;;;;;;;;;;21.54;37.37;100435.14;105176;1297;61051;-82
2022/01/03 10:37:18;;;;;;;;;;;;;;;21.54;37.49;100437.07;105056;1299;72436;-82
2022/01/03 10:39:43;;;;;;;;;;;;;;;21.54;37.35;100433.48;105109;1297;61315;-81
2022/01/03 10:42:18;;;;;;;;;;;;;;;21.54;37.25;100429.21;105080;1299;61304;-81
2022/01/03 10:44:44;;;;;;;;;;;;;;;21.54;37.56;100426.36;105066;1299;61330;-81
2022/01/03 10:47:15;;;;;;;;;;;;;;;21.55;37.54;100415.02;105129;1299;61258;-81
2022/01/03 10:49:41;;;;;;;;;;;;;;;21.55;37.50;100414.29;105141;1299;74561;-81
2022/01/03 10:52:10;;;;;;;;;;;;;;;21.55;37.42;100416.95;105111;1297;61289;-80
2022/01/03 10:54:36;;;;;;;;;;;;;;;21.56;37.65;100406.71;105038;1299;61299;-82
2022/01/03 10:57:02;;;;;;;;;;;;;;;21.56;37.49;100411.85;105129;1297;61189;-80
2022/01/03 10:59:30;;;;;;;;;;;;;;;21.54;37.35;100408.98;105157;1298;60189;-80
2022/01/03 11:01:56;;;;;;;;;;;;;;;21.52;37.67;100408.03;105056;1297;61167;-80
2022/01/03 11:04:32;;;;;;;;;;;;;;;21.51;37.76;100407.93;105179;1297;60173;-81
2022/01/03 11:10:43;;;;;;;;;;;;;;;21.51;37.55;100410.23;105120;1299;73423;-81
2022/01/03 11:13:08;;;;;;;;;;;;;;;21.52;37.86;100396.58;105148;1297;61154;-81
2022/01/03 11:15:34;;;;;;;;;;;;;;;21.53;37.82;100391.33;105164;1297;61290;-80
2022/01/03 11:18:11;;;;;;;;;;;;;;;21.54;37.70;100388.20;105783;1298;59338;-81
2022/01/03 11:20:37;;;;;;;;;;;;;;;21.55;37.76;100382.57;105119;1297;75688;-81
2022/01/03 11:23:02;;;;;;;;;;;;;;;21.56;37.82;100376.93;105169;1297;60159;-81
2022/01/03 11:25:28;;;;;;;;;;;;;;;21.56;37.98;100370.33;105186;1298;61349;-81
2022/01/03 11:27:54;;;;;;;;;;;;;;;21.57;37.84;100368.64;105013;1299;61268;-81
2022/01/03 11:30:20;;;;;;;;;;;;;;;21.58;37.98;100357.65;105097;1299;61390;-81
2022/01/03 11:32:48;;;;;;;;;;;;;;;21.59;37.94;100362.59;105143;1298;59449;-81
2022/01/03 11:35:14;;;;;;;;;;;;;;;21.59;38.23;100372.76;105037;1299;61225;-81
2022/01/03 11:37:40;;;;;;;;;;;;;;;21.59;38.03;100368.61;105143;1298;61148;-81
2022/01/03 11:40:06;;;;;;;;;;;;;;;21.60;38.03;100366.58;105087;1299;59516;-81
2022/01/03 11:42:32;;;;;;;;;;;;;;;21.61;38.05;100362.77;105036;1297;61207;-81
2022/01/03 11:44:58;;;;;;;;;;;;;;;21.62;37.93;100357.00;105033;1297;61242;-81
2022/01/03 11:47:24;;;;;;;;;;;;;;;21.61;37.99;100358.16;105976;1295;59470;-81
2022/01/03 11:49:50;;;;;;;;;;;;;;;21.60;37.99;100358.88;105741;1297;60479;-81
2022/01/03 11:52:16;;;;;;;;;;;;;;;21.60;38.22;100357.61;105673;1299;59215;-82
2022/01/03 11:54:41;;;;;;;;;;;;;;;21.59;38.09;100352.58;105837;1297;60392;-81
2022/01/03 11:57:46;;;;;;;;;;;;;;;21.57;38.08;100350.73;105906;1295;59272;-81
2022/01/03 12:05:46;;;;;;;;;;;;;;;21.55;38.14;100339.27;105845;1298;60966;-81
2022/01/03 12:08:32;;;;;;;;;;;;;;;21.54;38.18;100335.01;105828;1298;59564;-81
2022/01/03 12:11:00;;;;;;;;;;;;;;;21.56;38.12;100333.05;105870;1297;73730;-80
2022/01/03 12:13:44;;;;;;;;;;;;;;;21.58;37.95;100338.15;105837;1298;76154;-81
2022/01/03 12:16:10;;;;;;;;;;;;;;;21.60;38.10;100335.64;105936;1298;61017;-81
2022/01/03 12:18:35;;;;;;;;;;;;;;;21.62;37.99;100336.41;105841;1298;59548;-81
2022/01/03 12:21:01;;;;;;;;;;;;;;;21.63;38.19;100334.16;105885;1299;59459;-81
2022/01/03 12:23:42;;;;;;;;;;;;;;;21.65;38.04;100338.16;105953;1299;59244;-81
2022/01/03 12:26:12;;;;;;;;;;;;;;;21.66;38.11;100341.76;106044;1298;61164;-81
2022/01/03 12:28:57;;;;;;;;;;;;;;;21.67;38.18;100339.53;106000;1299;60778;-81
2022/01/03 12:31:22;;;;;;;;;;;;;;;21.68;38.24;100342.67;105778;1298;73657;-82
2022/01/03 12:34:07;;;;;;;;;;;;;;;21.69;38.16;100336.70;105095;1299;61396;-81
2022/01/03 12:36:33;;;;;;;;;;;;;;;21.70;38.07;100336.12;105147;1298;61356;-81
2022/01/03 12:39:03;;;;;;;;;;;;;;;21.70;38.02;100340.02;105230;1297;61263;-82
2022/01/03 12:41:45;;;;;;;;;;;;;;;21.70;38.08;100344.48;105010;1300;73891;-82
2022/01/03 12:44:11;;;;;;;;;;;;;;;21.69;38.11;100348.33;105195;1299;75724;-81
2022/01/03 12:46:39;;;;;;;;;;;;;;;21.70;38.10;100342.02;105071;1298;61298;-81
2022/01/03 12:49:24;;;;;;;;;;;;;;;21.69;38.00;100342.82;105006;1299;61192;-82
2022/01/03 12:51:50;;;;;;;;;;;;;;;21.69;38.16;100339.28;105156;1297;73323;-81
2022/01/03 12:54:26;;;;;;;;;;;;;;;21.68;38.21;100339.30;105129;1298;61431;-81
2022/01/03 12:56:52;;;;;;;;;;;;;;;21.68;38.27;100338.03;105968;1298;60004;-81
2022/01/03 12:59:17;;;;;;;;;;;;;;;21.68;38.27;100335.38;105908;1301;60190;-81
2022/01/03 13:01:43;;;;;;;;;;;;;;;21.67;38.21;100335.80;106063;1298;60164;-80
2022/01/03 13:04:18;;;;;;;;;;;;;;;21.67;38.51;100338.12;105397;1300;59410;-81
2022/01/03 13:06:44;;;;;;;;;;;;;;;21.68;38.36;100335.88;106057;1298;60177;-81
2022/01/03 13:09:10;;;;;;;;;;;;;;;21.69;38.49;100334.93;105088;1298;61373;-82
2022/01/03 13:11:47;;;;;;;;;;;;;;;21.69;38.37;100332.75;104982;1301;61310;-81
2022/01/03 13:14:18;;;;;;;;;;;;;;;21.69;38.50;100338.02;105155;1297;74627;-81
2022/01/03 13:16:58;;;;;;;;;;;;;;;21.68;38.50;100337.88;105139;1299;61160;-81